createdAt,value
2019-02-26T00:00:36.096Z,62.10
2019-02-26T00:03:04.866Z,62.40
2019-02-26T00:05:33.473Z,62.30
2019-02-26T00:08:02.593Z,62.20
2019-02-26T00:10:34.008Z,62.10
2019-02-26T00:13:01.912Z,62.00
2019-02-26T00:15:33.287Z,62.40
2019-02-26T00:18:00.898Z,63.30
2019-02-26T00:20:31.533Z,63.60
2019-02-26T00:23:01.882Z,63.30
2019-02-26T00:25:30.096Z,63.00
2019-02-26T00:27:58.770Z,62.50
2019-02-26T00:30:27.456Z,62.50
2019-02-26T00:32:57.800Z,62.40
2019-02-26T00:35:27.649Z,62.10
2019-02-26T00:37:56.525Z,62.10
2019-02-26T00:40:25.191Z,62.20
2019-02-26T00:42:55.035Z,62.70
2019-02-26T00:45:26.867Z,63.00
2019-02-26T00:47:54.449Z,62.90
2019-02-26T00:50:23.095Z,62.90
2019-02-26T00:52:54.618Z,63.30
2019-02-26T00:55:25.252Z,63.60
2019-02-26T00:57:56.822Z,63.10
2019-02-26T01:00:24.637Z,63.00
2019-02-26T01:02:53.727Z,63.10
2019-02-26T01:05:22.384Z,63.40
2019-02-26T01:07:52.462Z,63.70
2019-02-26T01:10:23.449Z,64.10
2019-02-26T01:12:51.590Z,64.20
2019-02-26T01:15:21.486Z,64.70
2019-02-26T01:17:50.143Z,65.20
2019-02-26T01:20:21.535Z,65.40
2019-02-26T01:22:49.527Z,65.70
2019-02-26T01:25:20.454Z,65.60
2019-02-26T01:27:50.577Z,65.30
2019-02-26T01:30:23.511Z,64.70
2019-02-26T01:32:48.972Z,64.30
2019-02-26T01:35:17.614Z,64.40
2019-02-26T01:37:46.308Z,64.40
2019-02-26T01:40:18.235Z,63.50
2019-02-26T01:42:49.752Z,63.50
2019-02-26T01:45:15.523Z,63.70
2019-02-26T01:47:46.227Z,63.40
2019-02-26T01:50:16.170Z,63.10
2019-02-26T01:52:44.789Z,62.70
2019-02-26T01:55:13.437Z,62.20
2019-02-26T01:57:43.491Z,62.20
2019-02-26T02:00:19.442Z,61.30
2019-02-26T02:02:48.012Z,61.10
2019-02-26T02:06:13.602Z,61.60
2019-02-26T02:08:43.529Z,61.80
2019-02-26T02:11:11.896Z,62.30
2019-02-26T02:13:41.427Z,62.30
2019-02-26T02:16:14.038Z,62.30
2019-02-26T02:18:48.125Z,62.80
2019-02-26T02:21:35.642Z,63.40
2019-02-26T02:24:05.729Z,63.60
2019-02-26T02:26:35.055Z,63.10
2019-02-26T02:29:04.018Z,63.30
2019-02-26T02:31:34.876Z,63.00
2019-02-26T02:34:03.068Z,62.80
2019-02-26T02:36:31.655Z,63.50
2019-02-26T02:39:00.332Z,64.00
2019-02-26T02:41:29.074Z,64.60
2019-02-26T02:43:57.772Z,64.60
2019-02-26T02:46:26.505Z,64.50
2019-02-26T02:48:55.281Z,64.90
2019-02-26T02:51:25.742Z,63.70
2019-02-26T02:53:57.336Z,63.30
2019-02-26T02:56:24.684Z,63.60
2019-02-26T02:58:53.427Z,63.80
2019-02-26T03:01:24.449Z,63.60
2019-02-26T03:03:53.816Z,62.90
2019-02-26T03:06:24.219Z,62.60
2019-02-26T03:08:53.537Z,63.50
2019-02-26T03:11:22.421Z,63.00
2019-02-26T03:13:53.238Z,62.80
2019-02-26T03:16:21.996Z,62.90
2019-02-26T03:18:51.732Z,62.90
2019-02-26T03:21:22.096Z,62.30
2019-02-26T03:23:50.618Z,61.20
2019-02-26T03:26:20.558Z,61.30
2019-02-26T03:28:51.386Z,62.00
2019-02-26T03:31:20.096Z,62.60
2019-02-26T03:33:48.839Z,62.80
2019-02-26T03:36:19.267Z,62.00
2019-02-26T03:38:49.049Z,60.90
2019-02-26T03:41:22.230Z,60.50
2019-02-26T03:43:48.449Z,60.00
2019-02-26T03:46:17.128Z,60.00
2019-02-26T03:48:45.858Z,59.80
2019-02-26T03:51:17.210Z,59.30
2019-02-26T03:53:44.691Z,59.00
2019-02-26T03:56:14.810Z,58.80
2019-02-26T03:58:43.712Z,58.60
2019-02-26T04:01:13.628Z,58.50
2019-02-26T04:03:42.715Z,58.30
2019-02-26T04:06:12.170Z,58.70
2019-02-26T04:08:42.217Z,60.10
2019-02-26T04:11:11.482Z,59.70
2019-02-26T04:13:41.027Z,60.00
2019-02-26T04:16:10.384Z,60.40
2019-02-26T04:18:39.111Z,60.70
2019-02-26T04:21:09.481Z,60.50
2019-02-26T04:23:38.828Z,60.70
2019-02-26T04:26:29.032Z,60.80
2019-02-26T04:29:02.905Z,60.30
2019-02-26T04:31:49.322Z,60.20
2019-02-26T04:34:20.211Z,60.50
2019-02-26T04:36:59.113Z,60.70
2019-02-26T04:39:49.064Z,61.20
2019-02-26T04:42:32.508Z,61.60
2019-02-26T04:45:09.701Z,61.90
2019-02-26T04:47:49.686Z,62.20
2019-02-26T04:50:18.100Z,62.20
2019-02-26T04:52:46.780Z,63.10
2019-02-26T04:55:15.349Z,63.80
2019-02-26T04:57:46.616Z,63.80
2019-02-26T05:00:14.331Z,63.90
2019-02-26T05:02:42.990Z,64.20
2019-02-26T05:05:11.722Z,64.90
2019-02-26T05:07:42.123Z,65.30
2019-02-26T05:10:10.819Z,65.70
2019-02-26T05:12:40.140Z,65.70
2019-02-26T05:15:11.459Z,65.60
2019-02-26T05:17:39.516Z,65.80
2019-02-26T05:20:10.455Z,65.30
2019-02-26T05:22:38.433Z,65.40
2019-02-26T05:25:13.763Z,65.90
2019-02-26T05:27:42.062Z,66.50
2019-02-26T05:30:12.869Z,67.10
2019-02-26T05:32:40.211Z,67.20
2019-02-26T05:35:08.947Z,67.30
2019-02-26T05:37:40.753Z,67.10
2019-02-26T05:40:10.477Z,67.20
2019-02-26T05:42:38.439Z,67.40
2019-02-26T05:45:09.288Z,68.00
2019-02-26T05:47:37.620Z,68.10
2019-02-26T05:50:13.009Z,68.10
2019-02-26T05:52:38.955Z,68.10
2019-02-26T05:55:08.337Z,68.10
2019-02-26T05:57:36.978Z,68.20
2019-02-26T06:00:08.523Z,69.20
2019-02-26T06:02:40.126Z,69.00
2019-02-26T06:05:12.353Z,69.50
2019-02-26T06:07:39.844Z,70.10
2019-02-26T06:10:08.479Z,70.20
2019-02-26T06:12:38.996Z,70.10
2019-02-26T06:15:08.101Z,70.80
2019-02-26T06:17:40.633Z,70.90
2019-02-26T06:20:15.917Z,70.80
2019-02-26T06:22:44.655Z,70.90
2019-02-26T06:25:18.594Z,71.60
2019-02-26T06:27:43.661Z,71.60
2019-02-26T06:30:14.080Z,71.60
2019-02-26T06:32:44.754Z,71.60
2019-02-26T06:35:16.503Z,71.80
2019-02-26T06:37:45.754Z,71.70
2019-02-26T06:40:16.136Z,71.80
2019-02-26T06:42:44.882Z,71.80
2019-02-26T06:45:16.425Z,71.80
2019-02-26T06:47:45.614Z,72.00
2019-02-26T06:50:18.009Z,71.90
2019-02-26T06:52:47.874Z,71.40
2019-02-26T06:55:15.880Z,71.50
2019-02-26T06:57:47.173Z,71.90
2019-02-26T07:00:21.252Z,72.00
2019-02-26T07:02:48.972Z,71.90
2019-02-26T07:05:17.715Z,71.50
2019-02-26T07:07:46.420Z,71.80
2019-02-26T07:10:18.288Z,71.90
2019-02-26T07:12:48.890Z,71.90
2019-02-26T07:15:17.112Z,71.60
2019-02-26T07:17:46.283Z,71.70
2019-02-26T07:20:16.492Z,71.50
2019-02-26T07:22:47.217Z,71.60
2019-02-26T07:25:18.037Z,71.70
2019-02-26T07:27:45.764Z,71.50
2019-02-26T07:30:14.454Z,72.20
2019-02-26T07:32:45.507Z,70.90
2019-02-26T07:35:16.051Z,70.40
2019-02-26T07:37:43.729Z,70.00
2019-02-26T07:40:15.171Z,70.40
2019-02-26T07:42:44.713Z,69.70
2019-02-26T07:45:15.309Z,69.70
2019-02-26T07:47:45.081Z,69.20
2019-02-26T07:50:14.594Z,68.10
2019-02-26T07:52:44.144Z,67.70
2019-02-26T07:55:14.704Z,66.90
2019-02-26T07:57:45.315Z,65.50
2019-02-26T08:00:16.561Z,64.80
2019-02-26T08:02:45.215Z,65.00
2019-02-26T08:05:13.870Z,64.90
2019-02-26T08:07:44.420Z,65.10
2019-02-26T08:10:16.839Z,65.30
2019-02-26T08:12:45.487Z,65.50
2019-02-26T08:15:15.628Z,64.70
2019-02-26T08:17:47.788Z,64.50
2019-02-26T08:20:15.231Z,64.20
2019-02-26T08:22:43.861Z,63.90
2019-02-26T08:25:13.714Z,63.60
2019-02-26T08:27:42.376Z,64.30
2019-02-26T08:30:18.824Z,63.70
2019-02-26T08:32:48.344Z,63.50
2019-02-26T08:35:18.888Z,63.70
2019-02-26T08:37:46.803Z,63.00
2019-02-26T08:40:15.659Z,62.70
2019-02-26T08:42:44.305Z,62.40
2019-02-26T08:45:23.133Z,61.40
2019-02-26T08:47:51.090Z,61.00
2019-02-26T08:50:19.736Z,59.50
2019-02-26T08:52:52.305Z,58.50
2019-02-26T08:55:21.633Z,57.10
2019-02-26T08:57:51.217Z,55.50
2019-02-26T09:00:20.308Z,55.60
2019-02-26T09:02:53.549Z,55.40
2019-02-26T09:05:19.273Z,54.50
2019-02-26T09:07:50.350Z,54.00
2019-02-26T09:10:20.625Z,50.60
2019-02-26T09:12:51.063Z,41.40
2019-02-26T09:15:20.067Z,34.30
2019-02-26T09:17:49.682Z,29.30
2019-02-26T09:20:19.580Z,28.70
2019-02-26T09:22:50.758Z,28.00
2019-02-26T09:25:20.372Z,26.90
2019-02-26T09:27:48.750Z,28.00
2019-02-26T09:30:19.484Z,28.20
2019-02-26T09:32:48.107Z,28.80
2019-02-26T09:35:20.382Z,29.00
2019-02-26T09:37:50.722Z,30.00
2019-02-26T09:40:23.034Z,30.60
2019-02-26T09:42:53.754Z,28.70
2019-02-26T09:45:25.858Z,26.50
2019-02-26T09:47:55.630Z,26.50
2019-02-26T09:50:23.789Z,25.30
2019-02-26T09:52:55.179Z,25.00
2019-02-26T09:55:22.672Z,26.00
2019-02-26T09:57:51.224Z,27.50
2019-02-26T10:00:23.649Z,28.40
2019-02-26T10:02:52.279Z,27.60
2019-02-26T10:05:21.019Z,27.60
2019-02-26T10:07:53.666Z,27.90
2019-02-26T10:10:22.093Z,26.90
2019-02-26T10:12:53.634Z,25.60
2019-02-26T10:15:21.092Z,24.90
2019-02-26T10:17:49.737Z,23.50
2019-02-26T10:20:26.211Z,23.10
2019-02-26T10:22:57.201Z,23.10
2019-02-26T10:25:26.385Z,23.20
2019-02-26T10:27:54.576Z,22.70
2019-02-26T10:30:23.151Z,24.30
2019-02-26T10:32:51.798Z,24.50
2019-02-26T10:35:32.441Z,24.60
2019-02-26T10:37:54.553Z,24.20
2019-02-26T10:40:23.292Z,25.20
2019-02-26T10:42:51.995Z,26.30
2019-02-26T10:45:23.752Z,24.60
2019-02-26T10:47:54.353Z,24.20
2019-02-26T10:50:31.299Z,24.10
2019-02-26T10:53:01.467Z,25.80
2019-02-26T10:55:35.286Z,26.70
2019-02-26T10:57:58.664Z,26.50
2019-02-26T11:00:32.196Z,27.50
2019-02-26T11:02:59.310Z,28.20
2019-02-26T11:05:28.008Z,28.60
2019-02-26T11:07:59.699Z,28.00
2019-02-26T11:10:26.927Z,27.40
2019-02-26T11:12:58.625Z,27.10
2019-02-26T11:15:26.937Z,26.70
2019-02-26T11:17:56.182Z,26.60
2019-02-26T11:20:27.724Z,27.30
2019-02-26T11:22:55.227Z,27.50
2019-02-26T11:25:24.815Z,26.10
2019-02-26T11:27:54.171Z,26.30
2019-02-26T11:30:27.235Z,27.50
2019-02-26T11:32:58.714Z,28.90
2019-02-26T11:35:26.861Z,30.70
2019-02-26T11:37:55.434Z,29.00
2019-02-26T11:40:28.084Z,28.50
2019-02-26T11:42:55.972Z,28.70
2019-02-26T11:45:24.622Z,27.40
2019-02-26T11:47:55.180Z,25.90
2019-02-26T11:50:27.984Z,24.30
2019-02-26T11:52:57.241Z,23.70
2019-02-26T11:55:26.946Z,25.10
2019-02-26T11:57:56.146Z,26.40
2019-02-26T12:00:31.351Z,27.90
2019-02-26T12:02:58.153Z,28.60
2019-02-26T12:05:31.384Z,28.50
2019-02-26T12:07:58.858Z,28.90
2019-02-26T12:10:29.668Z,28.20
2019-02-26T12:13:00.055Z,27.80
2019-02-26T12:15:30.199Z,29.00
2019-02-26T12:17:58.742Z,28.70
2019-02-26T12:20:27.802Z,27.80
2019-02-26T12:22:56.461Z,27.90
2019-02-26T12:25:25.041Z,28.30
2019-02-26T12:27:53.658Z,29.20
2019-02-26T12:30:23.734Z,30.10
2019-02-26T12:32:54.451Z,31.50
2019-02-26T12:35:22.795Z,31.50
2019-02-26T12:37:53.960Z,32.20
2019-02-26T12:40:24.720Z,31.90
2019-02-26T12:42:52.107Z,31.90
2019-02-26T12:45:25.605Z,32.20
2019-02-26T12:47:55.255Z,33.10
2019-02-26T12:50:29.097Z,33.30
2019-02-26T12:52:57.019Z,33.30
2019-02-26T12:55:29.497Z,32.40
2019-02-26T12:57:56.467Z,31.80
2019-02-26T13:00:26.404Z,31.70
2019-02-26T13:02:55.330Z,30.10
2019-02-26T13:05:24.047Z,30.70
2019-02-26T13:07:52.690Z,28.30
2019-02-26T13:10:23.546Z,29.00
2019-02-26T13:12:54.987Z,28.80
2019-02-26T13:15:22.913Z,28.30
2019-02-26T13:17:54.319Z,28.90
2019-02-26T13:20:23.629Z,31.20
2019-02-26T13:22:56.481Z,32.80
2019-02-26T13:25:26.355Z,32.60
2019-02-26T13:27:52.892Z,31.40
2019-02-26T13:30:30.691Z,30.90
2019-02-26T13:33:00.864Z,31.50
2019-02-26T13:35:29.628Z,31.70
2019-02-26T13:38:00.651Z,29.90
2019-02-26T13:40:29.332Z,30.00
2019-02-26T13:45:28.540Z,28.00
2019-02-26T13:48:01.133Z,28.60
2019-02-26T13:50:29.276Z,27.60
2019-02-26T13:52:57.922Z,27.70
2019-02-26T13:55:26.622Z,27.30
2019-02-26T13:57:55.289Z,28.20
2019-02-26T14:00:26.688Z,28.20
2019-02-26T14:02:54.258Z,28.80
2019-02-26T14:05:22.910Z,28.80
2019-02-26T14:07:51.566Z,29.60
2019-02-26T14:10:25.385Z,29.60
2019-02-26T14:12:54.037Z,29.60
2019-02-26T14:15:24.386Z,29.60
2019-02-26T14:17:53.297Z,29.60
2019-02-26T14:20:21.948Z,30.00
2019-02-26T14:22:50.584Z,30.00
2019-02-26T14:25:19.274Z,29.70
2019-02-26T14:27:47.922Z,29.30
2019-02-26T14:30:19.052Z,29.60
2019-02-26T14:32:47.751Z,29.80
2019-02-26T14:35:16.624Z,29.80
2019-02-26T14:37:45.212Z,29.30
2019-02-26T14:40:20.810Z,29.60
2019-02-26T14:42:49.406Z,29.50
2019-02-26T14:45:22.545Z,29.60
2019-02-26T14:47:51.261Z,29.70
2019-02-26T14:50:21.699Z,30.00
2019-02-26T14:52:50.355Z,30.00
2019-02-26T14:55:19.048Z,30.90
2019-02-26T14:57:47.694Z,30.80
2019-02-26T15:00:21.793Z,30.40
2019-02-26T15:02:50.714Z,30.40
2019-02-26T15:05:19.359Z,29.60
2019-02-26T15:07:47.931Z,29.40
2019-02-26T15:10:16.618Z,29.90
2019-02-26T15:12:45.277Z,30.70
2019-02-26T15:15:17.451Z,31.60
2019-02-26T15:17:45.392Z,31.20
2019-02-26T15:20:19.464Z,30.80
2019-02-26T15:22:48.177Z,31.20
2019-02-26T15:25:20.050Z,31.70
2019-02-26T15:27:48.705Z,31.70
2019-02-26T15:30:19.051Z,32.60
2019-02-26T15:32:47.765Z,33.40
2019-02-26T15:35:16.388Z,33.30
2019-02-26T15:37:45.057Z,33.70
2019-02-26T15:40:15.460Z,34.00
2019-02-26T15:42:44.107Z,34.20
2019-02-26T15:45:24.060Z,33.80
2019-02-26T15:47:53.401Z,34.00
2019-02-26T15:50:22.437Z,34.50
2019-02-26T15:52:53.018Z,34.70
2019-02-26T15:55:29.192Z,34.80
2019-02-26T15:58:03.122Z,35.50
2019-02-26T16:00:28.692Z,35.50
2019-02-26T16:02:59.390Z,35.80
2019-02-26T16:05:36.356Z,36.10
2019-02-26T16:08:05.293Z,36.00
2019-02-26T16:10:33.952Z,36.40
2019-02-26T16:13:05.399Z,36.30
2019-02-26T16:15:35.668Z,36.70
2019-02-26T16:18:04.308Z,36.30
2019-02-26T16:20:33.008Z,36.30
2019-02-26T16:23:01.650Z,36.70
2019-02-26T16:25:30.285Z,36.70
2019-02-26T16:27:58.990Z,36.90
2019-02-26T16:30:28.713Z,37.00
2019-02-26T16:32:57.352Z,37.20
2019-02-26T16:35:26.066Z,37.30
2019-02-26T16:37:54.711Z,37.50
2019-02-26T16:40:23.287Z,38.80
2019-02-26T16:42:51.997Z,39.20
2019-02-26T16:45:22.646Z,39.30
2019-02-26T16:47:51.280Z,39.50
2019-02-26T16:50:24.962Z,39.50
2019-02-26T16:52:53.611Z,39.50
2019-02-26T16:55:22.246Z,39.70
2019-02-26T16:58:10.303Z,39.80
2019-02-26T17:00:38.955Z,39.70
2019-02-26T17:03:07.612Z,39.60
2019-02-26T17:05:36.337Z,39.90
2019-02-26T17:08:04.896Z,40.20
2019-02-26T17:10:33.558Z,40.40
2019-02-26T17:13:03.088Z,40.50
2019-02-26T17:15:36.687Z,41.40
2019-02-26T17:18:09.592Z,41.80
2019-02-26T17:20:36.063Z,42.30
2019-02-26T17:23:04.725Z,42.90
2019-02-26T17:25:33.377Z,43.30
2019-02-26T17:28:02.054Z,42.90
2019-02-26T17:30:30.691Z,44.00
2019-02-26T17:32:59.354Z,43.70
2019-02-26T17:35:29.549Z,43.80
2019-02-26T17:37:58.369Z,44.10
2019-02-26T17:40:27.911Z,44.40
2019-02-26T17:42:57.222Z,44.50
2019-02-26T17:45:28.337Z,44.50
2019-02-26T17:47:57.525Z,44.80
2019-02-26T17:50:31.777Z,44.90
2019-02-26T17:53:00.430Z,45.20
2019-02-26T17:55:29.090Z,45.40
2019-02-26T17:57:57.807Z,45.50
2019-02-26T18:00:28.012Z,46.00
2019-02-26T18:02:56.658Z,46.10
2019-02-26T18:05:25.277Z,46.30
2019-02-26T18:07:53.920Z,46.70
2019-02-26T18:10:25.039Z,46.90
2019-02-26T18:12:54.110Z,46.90
2019-02-26T18:15:22.915Z,47.10
2019-02-26T18:17:51.568Z,47.30
2019-02-26T18:20:21.265Z,47.60
2019-02-26T18:22:49.916Z,47.80
2019-02-26T18:25:20.747Z,47.90
2019-02-26T18:27:49.457Z,47.80
2019-02-26T18:30:23.964Z,47.90
2019-02-26T18:32:55.660Z,48.50
2019-02-26T18:35:22.954Z,48.40
2019-02-26T18:37:51.602Z,48.30
2019-02-26T18:40:20.316Z,48.60
2019-02-26T18:42:49.162Z,48.90
2019-02-26T18:45:20.460Z,49.10
2019-02-26T18:47:49.160Z,49.30
2019-02-26T18:50:17.813Z,50.10
2019-02-26T18:52:46.469Z,48.90
2019-02-26T18:55:17.641Z,49.00
2019-02-26T18:57:46.287Z,48.80
2019-02-26T19:00:20.749Z,48.50
2019-02-26T19:02:49.444Z,48.00
2019-02-26T19:05:20.405Z,48.10
2019-02-26T19:07:48.396Z,48.50
2019-02-26T19:10:20.967Z,48.50
2019-02-26T19:12:48.900Z,48.60
2019-02-26T19:15:19.937Z,48.80
2019-02-26T19:17:50.323Z,48.80
2019-02-26T19:20:21.583Z,49.10
2019-02-26T19:22:52.532Z,49.30
2019-02-26T19:25:21.234Z,49.50
2019-02-26T19:27:52.822Z,49.70
2019-02-26T19:30:21.886Z,50.00
2019-02-26T19:32:50.594Z,50.30
2019-02-26T19:35:19.246Z,50.20
2019-02-26T19:37:55.109Z,50.00
2019-02-26T19:40:30.503Z,49.90
2019-02-26T19:42:59.494Z,50.30
2019-02-26T19:45:47.549Z,50.00
2019-02-26T19:48:16.197Z,50.40
2019-02-26T19:50:47.759Z,50.50
2019-02-26T19:53:15.207Z,50.40
2019-02-26T19:55:49.855Z,50.60
2019-02-26T19:58:18.971Z,51.10
2019-02-26T20:00:47.635Z,51.80
2019-02-26T20:03:16.283Z,51.70
2019-02-26T20:05:46.632Z,52.10
2019-02-26T20:08:15.282Z,52.30
2019-02-26T20:10:47.877Z,52.00
2019-02-26T20:13:14.287Z,52.20
2019-02-26T20:15:42.934Z,52.90
2019-02-26T20:18:20.119Z,52.80
2019-02-26T20:20:45.732Z,53.10
2019-02-26T20:23:12.231Z,53.10
2019-02-26T20:25:42.790Z,53.00
2019-02-26T20:28:11.244Z,53.40
2019-02-26T20:30:39.894Z,53.60
2019-02-26T20:33:08.524Z,54.10
2019-02-26T20:35:37.435Z,53.60
2019-02-26T20:38:06.208Z,53.40
2019-02-26T20:40:34.849Z,53.70
2019-02-26T20:43:05.340Z,53.30
2019-02-26T20:45:33.858Z,53.30
2019-02-26T20:48:04.212Z,53.40
2019-02-26T20:50:32.844Z,53.60
2019-02-26T20:53:05.672Z,53.90
2019-02-26T20:55:33.806Z,54.30
2019-02-26T20:58:02.774Z,54.30
2019-02-26T21:00:31.424Z,54.60
2019-02-26T21:03:00.095Z,54.60
2019-02-26T21:05:28.788Z,54.90
2019-02-26T21:07:58.790Z,54.30
2019-02-26T21:10:27.729Z,53.20
2019-02-26T21:12:56.435Z,52.40
2019-02-26T21:15:26.000Z,51.80
2019-02-26T21:17:57.744Z,52.10
2019-02-26T21:20:24.942Z,52.80
2019-02-26T21:22:54.900Z,53.30
2019-02-26T21:25:23.869Z,53.80
2019-02-26T21:27:52.506Z,53.70
2019-02-26T21:30:27.136Z,53.60
2019-02-26T21:32:57.868Z,53.60
2019-02-26T21:35:26.075Z,54.20
2019-02-26T21:37:54.738Z,53.90
2019-02-26T21:40:23.394Z,54.70
2019-02-26T21:42:51.960Z,54.40
2019-02-26T21:45:20.602Z,54.30
2019-02-26T21:47:49.269Z,54.60
2019-02-26T21:50:22.110Z,54.70
2019-02-26T21:53:03.510Z,54.80
2019-02-26T21:55:18.708Z,54.40
2019-02-26T21:57:47.404Z,54.50
2019-02-26T22:00:17.369Z,54.10
2019-02-26T22:02:46.018Z,53.20
2019-02-26T22:05:14.713Z,52.70
2019-02-26T22:07:43.362Z,52.60
2019-02-26T22:10:15.138Z,52.90
2019-02-26T22:12:43.846Z,52.50
2019-02-26T22:15:14.398Z,52.30
2019-02-26T22:17:42.992Z,53.00
2019-02-26T22:20:22.131Z,52.60
2019-02-26T22:22:45.179Z,53.10
2019-02-26T22:25:17.152Z,53.90
2019-02-26T22:27:44.292Z,54.50
2019-02-26T22:30:15.070Z,54.20
2019-02-26T22:32:43.710Z,53.90
2019-02-26T22:35:12.438Z,52.90
2019-02-26T22:37:41.478Z,52.00
2019-02-26T22:40:15.346Z,51.50
2019-02-26T22:42:44.051Z,51.40
2019-02-26T22:45:14.302Z,52.30
2019-02-26T22:47:44.134Z,52.60
2019-02-26T22:50:17.459Z,52.90
2019-02-26T22:52:46.102Z,53.00
2019-02-26T22:55:17.255Z,53.40
2019-02-26T22:57:46.277Z,53.80
2019-02-26T23:00:31.455Z,54.00
2019-02-26T23:03:00.158Z,54.20
2019-02-26T23:05:28.920Z,54.10
2019-02-26T23:07:57.567Z,54.30
2019-02-26T23:10:26.190Z,54.90
2019-02-26T23:12:54.826Z,55.20
2019-02-26T23:15:23.492Z,55.50
2019-02-26T23:17:52.097Z,55.70
2019-02-26T23:20:20.759Z,55.90
2019-02-26T23:22:49.397Z,56.30
2019-02-26T23:25:18.104Z,57.00
2019-02-26T23:27:48.680Z,57.20
2019-02-26T23:30:17.079Z,57.40
2019-02-26T23:32:45.782Z,57.00
2019-02-26T23:35:15.040Z,57.40
2019-02-26T23:37:43.692Z,58.00
2019-02-26T23:40:15.218Z,58.00
2019-02-26T23:42:43.872Z,58.10
2019-02-26T23:45:13.104Z,58.10
2019-02-26T23:47:41.743Z,58.20
2019-02-26T23:50:11.695Z,58.60
2019-02-26T23:52:40.140Z,58.80
2019-02-26T23:55:13.056Z,58.90
2019-02-26T23:57:40.105Z,58.60
